Time;durP1;ratioP1;P1;durP2;ratioP2;P2;SDS_P1;SDS_P2;PMS_P1;PMS_P2;Temp;Humidity;BMP_temperature;BMP_pressure;BME280_temperature;BME280_humidity;BME280_pressure;Samples;Min_cycle;Max_cycle;Signal;HPM_P1;HPM_P2
2023/07/29 00:01:11;;;;;;;16.92;6.40;;;;;;;16.92;100.00;100567.81;5045036;28;20071;-79
2023/07/29 00:03:36;;;;;;;17.27;6.88;;;;;;;16.93;100.00;100555.94;5052368;28;20382;-79
2023/07/29 00:06:01;;;;;;;18.63;7.43;;;;;;;16.94;100.00;100549.47;5052227;28;20033;-79
2023/07/29 00:08:27;;;;;;;16.83;6.63;;;;;;;16.96;100.00;100552.06;5052334;28;20091;-79
2023/07/29 00:10:52;;;;;;;18.85;7.50;;;;;;;16.95;100.00;100556.63;5051466;28;20033;-79
2023/07/29 00:13:17;;;;;;;17.73;7.43;;;;;;;16.94;100.00;100553.06;5051940;28;20052;-79
2023/07/29 00:15:43;;;;;;;18.35;7.10;;;;;;;16.96;100.00;100557.50;5050653;28;20029;-79
2023/07/29 00:18:08;;;;;;;17.48;7.07;;;;;;;16.97;100.00;100567.31;5048567;28;20033;-79
2023/07/29 00:20:33;;;;;;;19.90;7.50;;;;;;;16.96;100.00;100562.94;5051895;28;20018;-79
2023/07/29 00:22:59;;;;;;;16.35;6.18;;;;;;;16.96;100.00;100555.63;5052335;28;20045;-79
2023/07/29 00:25:24;;;;;;;17.45;6.97;;;;;;;16.94;100.00;100555.78;5051200;28;20052;-79
2023/07/29 00:27:50;;;;;;;18.85;7.38;;;;;;;16.96;100.00;100557.50;5052427;28;20093;-79
2023/07/29 00:30:15;;;;;;;19.20;7.65;;;;;;;16.96;100.00;100558.34;5051587;28;20033;-79
2023/07/29 00:32:41;;;;;;;18.77;7.45;;;;;;;16.97;100.00;100554.63;5051794;28;20037;-79
2023/07/29 00:35:06;;;;;;;18.27;7.18;;;;;;;16.99;100.00;100547.16;5039930;28;20107;-79
2023/07/29 00:37:32;;;;;;;19.95;7.53;;;;;;;17.00;100.00;100538.00;5047778;28;20096;-79
2023/07/29 00:39:58;;;;;;;17.40;7.53;;;;;;;17.01;100.00;100538.84;5051420;28;20036;-79
2023/07/29 00:42:23;;;;;;;19.40;7.28;;;;;;;16.98;100.00;100541.88;5051868;28;20025;-79
2023/07/29 00:44:48;;;;;;;19.00;7.35;;;;;;;16.99;100.00;100541.72;5050260;28;20405;-79
2023/07/29 00:47:15;;;;;;;21.05;7.82;;;;;;;16.99;100.00;100535.44;5051708;28;20057;-79
2023/07/29 00:49:42;;;;;;;18.02;7.30;;;;;;;16.98;100.00;100528.31;5051979;28;20084;-79
2023/07/29 00:52:07;;;;;;;19.13;7.88;;;;;;;16.98;100.00;100523.72;5050288;28;20029;-79
2023/07/29 00:54:33;;;;;;;19.92;8.15;;;;;;;16.98;100.00;100522.88;5050758;28;20183;-79
2023/07/29 00:56:58;;;;;;;18.30;8.13;;;;;;;16.98;100.00;100517.44;5049953;28;20033;-79
2023/07/29 00:59:24;;;;;;;20.13;8.10;;;;;;;17.00;100.00;100513.56;5051421;28;20030;-79
2023/07/29 01:01:50;;;;;;;18.73;7.68;;;;;;;16.99;100.00;100522.72;5075883;23;20049;-74
2023/07/29 01:04:15;;;;;;;17.73;7.35;;;;;;;16.95;100.00;100521.34;5055667;28;20490;-74
2023/07/29 01:06:49;;;;;;;21.08;7.93;;;;;;;16.94;100.00;100527.75;5081736;23;20048;-79
2023/07/29 01:09:30;;;;;;;18.60;7.90;;;;;;;16.90;100.00;100527.25;5091481;28;20028;-80
2023/07/29 01:12:24;;;;;;;19.63;8.07;;;;;;;16.89;100.00;100528.25;5080190;28;20039;-82
2023/07/29 01:14:59;;;;;;;19.02;7.90;;;;;;;16.86;100.00;100530.41;5063570;28;20425;-82
2023/07/29 01:17:32;;;;;;;19.83;8.13;;;;;;;16.85;100.00;100528.72;5081089;28;20099;-83
2023/07/29 01:20:09;;;;;;;24.33;8.32;;;;;;;16.85;100.00;100523.28;5083421;28;20475;-83
2023/07/29 01:22:36;;;;;;;20.73;8.30;;;;;;;16.83;100.00;100537.00;5080148;28;20034;-82
2023/07/29 01:25:02;;;;;;;18.42;7.95;;;;;;;16.82;100.00;100529.03;5075553;28;20016;-82
2023/07/29 01:27:28;;;;;;;21.48;9.32;;;;;;;16.84;100.00;100532.44;5063490;28;20035;-82
2023/07/29 01:29:54;;;;;;;19.02;7.82;;;;;;;16.86;100.00;100533.13;5085878;28;20028;-83
2023/07/29 01:32:43;;;;;;;19.58;8.27;;;;;;;16.88;100.00;100534.72;5080745;28;20028;-83
2023/07/29 01:35:21;;;;;;;18.55;7.57;;;;;;;16.90;100.00;100535.41;5067109;28;20135;-83
2023/07/29 01:37:51;;;;;;;19.27;7.10;;;;;;;16.92;100.00;100535.22;5085083;28;20032;-83
2023/07/29 01:40:18;;;;;;;19.02;7.13;;;;;;;16.93;100.00;100536.94;5085870;28;20040;-82
2023/07/29 01:42:45;;;;;;;18.33;6.70;;;;;;;16.93;100.00;100543.22;5086890;28;20059;-83
2023/07/29 01:45:10;;;;;;;17.90;7.03;;;;;;;16.94;100.00;100546.75;5070255;28;20032;-82
2023/07/29 01:47:38;;;;;;;16.63;6.43;;;;;;;16.95;100.00;100540.34;5085629;28;20086;-83
2023/07/29 01:50:03;;;;;;;21.38;7.18;;;;;;;16.94;100.00;100546.75;5084533;28;20032;-82
2023/07/29 01:52:29;;;;;;;17.42;6.80;;;;;;;16.95;100.00;100545.75;5083576;28;20161;-82
2023/07/29 01:54:54;;;;;;;19.55;7.15;;;;;;;16.93;100.00;100540.50;5083466;28;20032;-82
2023/07/29 01:57:19;;;;;;;18.30;6.18;;;;;;;16.92;100.00;100552.34;5085536;28;20030;-83
2023/07/29 01:59:45;;;;;;;21.20;6.45;;;;;;;16.92;100.00;100546.09;5084059;28;20031;-82
2023/07/29 02:02:10;;;;;;;18.15;6.20;;;;;;;16.91;100.00;100547.09;5075928;28;20115;-82
2023/07/29 02:04:36;;;;;;;16.48;5.85;;;;;;;16.93;100.00;100536.94;5069225;28;20382;-82
2023/07/29 02:07:02;;;;;;;16.50;5.28;;;;;;;16.92;100.00;100546.09;5065122;28;20048;-82
2023/07/29 02:09:27;;;;;;;16.85;5.50;;;;;;;16.91;100.00;100539.81;5063773;28;20093;-83
2023/07/29 02:11:52;;;;;;;15.65;5.25;;;;;;;16.91;100.00;100538.94;5052774;28;20085;-83
2023/07/29 02:14:18;;;;;;;13.90;5.15;;;;;;;16.93;100.00;100536.94;5076205;28;20045;-79
2023/07/29 02:16:43;;;;;;;17.65;6.00;;;;;;;16.90;100.00;100532.69;5089262;28;20033;-79
2023/07/29 02:19:08;;;;;;;15.77;5.57;;;;;;;16.88;100.00;100517.56;5081733;28;20036;-79
2023/07/29 02:21:33;;;;;;;13.90;5.00;;;;;;;16.87;100.00;100516.72;5080801;28;20028;-80
2023/07/29 02:23:59;;;;;;;13.07;4.60;;;;;;;16.85;100.00;100532.28;5081693;28;20043;-79
2023/07/29 02:26:24;;;;;;;12.77;4.45;;;;;;;16.84;100.00;100527.00;5080192;28;20017;-79
2023/07/29 02:28:49;;;;;;;14.85;5.25;;;;;;;16.82;100.00;100527.16;5074714;28;20024;-79
2023/07/29 02:31:18;;;;;;;13.38;4.75;;;;;;;16.81;100.00;100521.91;5084388;28;20028;-80
2023/07/29 02:33:44;;;;;;;13.90;4.53;;;;;;;16.81;100.00;100527.31;5075502;28;20038;-79
2023/07/29 02:36:11;;;;;;;15.10;4.63;;;;;;;16.73;100.00;100531.69;5086781;28;20064;-79
2023/07/29 02:38:36;;;;;;;13.88;4.88;;;;;;;16.71;100.00;100528.31;5081259;28;20392;-79
2023/07/29 02:41:01;;;;;;;13.95;4.30;;;;;;;16.67;100.00;100532.34;5078565;28;20025;-79
2023/07/29 02:43:27;;;;;;;14.43;4.82;;;;;;;16.64;100.00;100524.53;5083000;28;20028;-79
2023/07/29 02:45:52;;;;;;;18.13;5.30;;;;;;;16.63;100.00;100535.53;5074778;28;20093;-80
2023/07/29 02:48:17;;;;;;;13.57;4.68;;;;;;;16.60;100.00;100525.84;5090329;28;20055;-79
2023/07/29 02:50:43;;;;;;;14.90;5.70;;;;;;;16.59;100.00;100518.75;5081985;28;20036;-79
2023/07/29 02:53:08;;;;;;;14.25;5.20;;;;;;;16.57;100.00;100521.63;5080515;28;20067;-79
2023/07/29 02:55:33;;;;;;;14.95;5.75;;;;;;;16.55;100.00;100523.63;5070377;28;20399;-79
2023/07/29 02:57:59;;;;;;;14.75;4.75;;;;;;;16.52;100.00;100517.69;5080842;28;20103;-79
2023/07/29 03:00:24;;;;;;;15.73;5.20;;;;;;;16.50;100.00;100514.25;5069969;28;20025;-80
2023/07/29 03:02:50;;;;;;;14.05;5.07;;;;;;;16.50;100.00;100516.97;5079506;28;20032;-79
2023/07/29 03:05:15;;;;;;;15.50;4.88;;;;;;;16.49;100.00;100518.84;5071908;28;20024;-79
2023/07/29 03:07:41;;;;;;;16.42;5.68;;;;;;;16.50;100.00;100519.69;5076211;28;20075;-79
2023/07/29 03:10:06;;;;;;;14.43;5.05;;;;;;;16.50;100.00;100519.69;5079986;28;20051;-79
2023/07/29 03:12:31;;;;;;;15.40;5.47;;;;;;;16.50;100.00;100511.53;5071743;28;20115;-79
2023/07/29 03:14:57;;;;;;;15.52;5.07;;;;;;;16.48;100.00;100500.84;5070661;28;20037;-79
2023/07/29 03:17:22;;;;;;;16.95;5.28;;;;;;;16.47;100.00;100514.56;5066076;28;20029;-79
2023/07/29 03:19:47;;;;;;;16.50;5.47;;;;;;;16.45;100.00;100530.19;5076286;28;20040;-79
2023/07/29 03:22:13;;;;;;;14.23;5.82;;;;;;;16.42;100.00;100524.03;5083600;28;20021;-79
2023/07/29 03:24:38;;;;;;;13.00;4.35;;;;;;;16.42;100.00;100529.47;5064051;28;20473;-81
2023/07/29 03:27:04;;;;;;;16.00;5.63;;;;;;;16.42;100.00;100528.63;5073656;28;20017;-81
2023/07/29 03:29:29;;;;;;;15.63;5.32;;;;;;;16.43;100.00;100533.88;5063483;28;20131;-81
2023/07/29 03:31:54;;;;;;;15.07;5.13;;;;;;;16.42;100.00;100524.03;5057686;28;20031;-81
2023/07/29 03:34:20;;;;;;;17.27;5.57;;;;;;;16.46;100.00;100527.31;5063840;28;20036;-81
2023/07/29 03:36:47;;;;;;;17.55;5.43;;;;;;;16.45;100.00;100532.88;5063192;28;20149;-81
2023/07/29 03:39:13;;;;;;;13.18;5.00;;;;;;;16.44;100.00;100532.00;5061901;28;20485;-81
2023/07/29 03:41:38;;;;;;;16.33;5.57;;;;;;;16.41;100.00;100529.63;5061484;28;20029;-81
2023/07/29 03:44:04;;;;;;;16.52;5.90;;;;;;;16.39;100.00;100527.06;5056253;28;20173;-81
2023/07/29 03:46:31;;;;;;;14.10;4.93;;;;;;;16.38;100.00;100530.81;5064948;28;20084;-81
2023/07/29 03:48:57;;;;;;;15.82;5.55;;;;;;;16.38;100.00;100536.25;5062047;28;20035;-81
2023/07/29 03:51:24;;;;;;;18.67;6.22;;;;;;;16.36;100.00;100530.09;5061013;28;20399;-81
2023/07/29 03:53:49;;;;;;;16.98;5.22;;;;;;;16.33;100.00;100516.03;5059738;28;20107;-81
2023/07/29 03:56:15;;;;;;;14.50;5.10;;;;;;;16.31;100.00;100493.63;5059879;28;20037;-81
2023/07/29 03:58:40;;;;;;;17.80;5.90;;;;;;;16.29;100.00;100491.06;5061442;28;20116;-81
2023/07/29 04:01:06;;;;;;;16.05;5.15;;;;;;;16.31;100.00;100485.47;5057204;28;20053;-81
2023/07/29 04:03:34;;;;;;;14.20;4.80;;;;;;;16.30;100.00;100487.34;5064624;28;20386;-81
2023/07/29 04:05:59;;;;;;;15.45;6.18;;;;;;;16.31;100.00;100489.06;5062826;28;20028;-81
2023/07/29 04:08:25;;;;;;;20.10;6.18;;;;;;;16.31;100.00;100488.19;5060449;28;20459;-81
2023/07/29 04:10:50;;;;;;;15.57;5.55;;;;;;;16.29;100.00;100480.22;5051569;28;20500;-81
2023/07/29 04:13:15;;;;;;;16.40;5.30;;;;;;;16.28;100.00;100478.50;5068916;28;20564;-81
2023/07/29 04:15:41;;;;;;;15.13;4.97;;;;;;;16.31;100.00;100482.78;5062623;28;20025;-81
2023/07/29 04:18:06;;;;;;;14.55;4.93;;;;;;;16.30;100.00;100503.63;5061063;28;20036;-81
2023/07/29 04:20:32;;;;;;;17.48;5.53;;;;;;;16.30;100.00;100510.91;5062673;28;20025;-81
2023/07/29 04:22:57;;;;;;;15.52;5.03;;;;;;;16.29;100.00;100528.19;5062766;28;20036;-81
2023/07/29 04:25:23;;;;;;;16.30;5.38;;;;;;;16.27;100.00;100536.47;5062497;28;20190;-81
2023/07/29 04:27:48;;;;;;;14.82;5.20;;;;;;;16.28;100.00;100530.03;5054338;28;20024;-81
2023/07/29 04:30:13;;;;;;;13.20;4.70;;;;;;;16.27;100.00;100541.91;5063716;28;20027;-81
2023/07/29 04:32:39;;;;;;;14.98;4.63;;;;;;;16.25;100.00;100536.63;5061658;28;20036;-83
2023/07/29 04:35:04;;;;;;;16.95;5.40;;;;;;;16.27;100.00;100535.59;5060338;28;20017;-82
2023/07/29 04:37:30;;;;;;;15.45;4.93;;;;;;;16.27;100.00;100528.34;5060394;28;20040;-83
2023/07/29 04:39:55;;;;;;;15.25;4.90;;;;;;;16.29;100.00;100539.88;5062730;28;20079;-82
2023/07/29 04:42:20;;;;;;;14.93;4.63;;;;;;;16.27;100.00;100541.91;5062309;28;20495;-82
2023/07/29 04:44:46;;;;;;;12.63;4.00;;;;;;;16.29;100.00;100550.72;5071165;28;20021;-79
2023/07/29 04:47:11;;;;;;;16.50;4.90;;;;;;;16.32;100.00;100555.81;5089897;28;20020;-79
2023/07/29 04:49:36;;;;;;;10.45;4.03;;;;;;;16.31;100.00;100537.88;5082655;28;20064;-79
2023/07/29 04:52:02;;;;;;;11.00;3.80;;;;;;;16.34;100.00;100544.81;5079993;28;20029;-79
2023/07/29 04:54:27;;;;;;;13.63;3.97;;;;;;;16.32;100.00;100550.41;5083053;28;20032;-79
2023/07/29 04:56:52;;;;;;;10.73;3.67;;;;;;;16.34;100.00;100548.41;5089334;28;20048;-79
2023/07/29 04:59:18;;;;;;;13.95;4.00;;;;;;;16.33;100.00;100552.13;5077326;28;20025;-79
2023/07/29 05:01:43;;;;;;;10.55;3.70;;;;;;;16.34;100.00;100552.97;5069807;28;20033;-79
2023/07/29 05:04:08;;;;;;;10.48;3.80;;;;;;;16.32;100.00;100549.56;5068961;28;20116;-79
2023/07/29 05:06:34;;;;;;;10.02;3.80;;;;;;;16.35;100.00;100558.22;5073728;28;20017;-79
2023/07/29 05:09:12;;;;;;;11.70;3.90;;;;;;;16.37;100.00;100560.78;5078598;28;20043;-79
2023/07/29 05:11:38;;;;;;;13.63;3.65;;;;;;;16.34;100.00;100561.97;5082007;28;20104;-79
2023/07/29 05:14:05;;;;;;;11.80;3.90;;;;;;;16.37;100.00;100569.78;5081091;28;20029;-79
2023/07/29 05:16:31;;;;;;;15.32;4.00;;;;;;;16.39;100.00;100562.34;5080977;28;20036;-79
2023/07/29 05:18:56;;;;;;;12.10;3.80;;;;;;;16.40;100.00;100571.34;5084589;28;20028;-79
2023/07/29 05:21:22;;;;;;;11.20;3.67;;;;;;;16.42;100.00;100564.72;5087861;28;20040;-79
2023/07/29 05:23:47;;;;;;;12.57;3.50;;;;;;;16.45;100.00;100570.88;5082534;28;20023;-79
2023/07/29 05:26:12;;;;;;;10.35;3.28;;;;;;;16.45;100.00;100560.00;5081817;28;20368;-78
2023/07/29 05:28:38;;;;;;;10.48;3.80;;;;;;;16.45;100.00;100560.84;5079936;28;20031;-79
2023/07/29 05:31:03;;;;;;;10.80;3.40;;;;;;;16.46;100.00;100559.84;5078274;28;20028;-79
2023/07/29 05:33:28;;;;;;;10.38;3.67;;;;;;;16.46;100.00;100558.97;5070181;28;20080;-79
2023/07/29 05:35:54;;;;;;;14.20;3.90;;;;;;;16.48;100.00;100563.25;5071321;28;20044;-79
2023/07/29 05:38:19;;;;;;;12.45;3.50;;;;;;;16.49;100.00;100566.84;5081737;28;20050;-79
2023/07/29 05:40:45;;;;;;;12.90;4.10;;;;;;;16.51;100.00;100559.38;5081444;28;20044;-79
2023/07/29 05:43:10;;;;;;;11.25;3.42;;;;;;;16.52;100.00;100563.78;5074513;28;20066;-78
2023/07/29 05:45:36;;;;;;;11.82;3.65;;;;;;;16.55;100.00;100560.75;5073423;28;20040;-78
2023/07/29 05:48:01;;;;;;;11.50;3.53;;;;;;;16.58;100.00;100566.72;5078410;28;20039;-79
2023/07/29 05:50:26;;;;;;;15.20;4.40;;;;;;;16.63;100.00;100563.50;5075657;28;20028;-79
2023/07/29 05:52:52;;;;;;;15.00;4.20;;;;;;;16.67;100.00;100573.03;5073510;28;20067;-78
2023/07/29 05:55:17;;;;;;;12.68;4.30;;;;;;;16.71;100.00;100566.28;5081826;28;20089;-78
2023/07/29 05:57:42;;;;;;;12.15;4.20;;;;;;;16.77;100.00;100573.78;5075195;28;20080;-79
2023/07/29 06:00:08;;;;;;;14.88;4.15;;;;;;;16.81;100.00;100576.19;5070330;28;20026;-79
2023/07/29 06:02:36;;;;;;;11.70;3.83;;;;;;;16.85;100.00;100562.16;5081980;28;20055;-79
2023/07/29 06:05:02;;;;;;;16.20;4.43;;;;;;;16.90;100.00;100561.69;5072358;28;20040;-79
2023/07/29 06:07:30;;;;;;;14.95;4.30;;;;;;;16.91;100.00;100566.09;5066390;28;20403;-79
2023/07/29 06:09:56;;;;;;;11.52;4.15;;;;;;;16.98;100.00;100558.16;5073708;28;20131;-79
2023/07/29 06:12:21;;;;;;;12.02;4.30;;;;;;;17.04;100.00;100560.22;5071755;28;20056;-79
2023/07/29 06:14:46;;;;;;;11.88;3.80;;;;;;;17.08;100.00;100567.88;5074087;28;20051;-79
2023/07/29 06:17:12;;;;;;;14.50;4.22;;;;;;;17.16;100.00;100568.94;5079646;28;20033;-79
2023/07/29 06:19:38;;;;;;;13.43;3.97;;;;;;;17.22;100.00;100558.28;5067106;28;20373;-79
2023/07/29 06:22:05;;;;;;;7.97;3.35;;;;;;;17.29;100.00;100550.31;5077829;28;20095;-79
2023/07/29 06:24:30;;;;;;;14.70;4.18;;;;;;;17.29;100.00;100548.47;5073131;28;20036;-79
2023/07/29 06:26:55;;;;;;;10.23;3.70;;;;;;;17.31;100.00;100551.03;5068090;28;20067;-79
2023/07/29 06:29:21;;;;;;;13.55;4.22;;;;;;;17.32;100.00;100558.16;5075037;28;20089;-79
2023/07/29 06:31:46;;;;;;;12.50;3.88;;;;;;;17.32;100.00;100552.75;5073199;28;20476;-79
2023/07/29 06:34:11;;;;;;;12.73;3.88;;;;;;;17.37;100.00;100561.22;5071617;28;20032;-79
2023/07/29 06:36:36;;;;;;;15.57;4.25;;;;;;;17.38;100.00;100562.94;5057300;28;20033;-79
2023/07/29 06:39:02;;;;;;;12.98;3.90;;;;;;;17.41;100.00;100551.75;5071397;28;20434;-79
2023/07/29 06:41:27;;;;;;;11.63;3.25;;;;;;;17.44;100.00;100551.41;5073405;28;20029;-79
2023/07/29 06:43:52;;;;;;;11.18;3.58;;;;;;;17.50;100.00;100558.06;5073068;28;20051;-79
2023/07/29 06:46:18;;;;;;;12.27;3.85;;;;;;;17.52;100.00;100553.28;5076356;28;20025;-79
2023/07/29 06:48:43;;;;;;;10.48;3.80;;;;;;;17.57;100.00;100558.22;5074282;28;20028;-79
2023/07/29 06:51:08;;;;;;;13.93;3.40;;;;;;;17.61;100.00;100565.91;5076447;28;20100;-79
2023/07/29 06:53:34;;;;;;;9.93;3.30;;;;;;;17.65;100.00;100571.84;5076658;28;20084;-79
2023/07/29 06:55:59;;;;;;;10.05;3.22;;;;;;;17.68;100.00;100570.69;5073443;28;20050;-79
2023/07/29 06:58:25;;;;;;;11.40;3.30;;;;;;;17.70;100.00;100582.22;5072571;28;20044;-79
2023/07/29 07:00:50;;;;;;;12.45;3.17;;;;;;;17.76;100.00;100582.41;5072695;28;20035;-79
2023/07/29 07:03:15;;;;;;;12.40;3.35;;;;;;;17.86;100.00;100584.13;5070825;28;20041;-79
2023/07/29 07:05:41;;;;;;;11.55;3.17;;;;;;;17.93;100.00;100582.47;5077522;28;20032;-79
2023/07/29 07:08:06;;;;;;;11.18;3.58;;;;;;;17.94;100.00;100584.19;5076494;28;20048;-79
2023/07/29 07:10:33;;;;;;;8.25;2.85;;;;;;;17.95;100.00;100578.59;5079144;28;20037;-79
2023/07/29 07:13:01;;;;;;;11.52;3.30;;;;;;;17.95;100.00;100583.16;5077879;28;20020;-79
2023/07/29 07:15:27;;;;;;;8.73;3.30;;;;;;;17.97;100.00;100581.13;5074033;28;20028;-79
2023/07/29 07:17:52;;;;;;;11.77;3.50;;;;;;;17.96;100.00;100576.69;5081719;28;20458;-79
2023/07/29 07:20:18;;;;;;;9.27;3.20;;;;;;;18.01;100.00;100584.34;5072924;28;20036;-79
2023/07/29 07:22:43;;;;;;;12.57;3.55;;;;;;;18.05;100.00;100588.44;5072152;28;20012;-80
2023/07/29 07:25:09;;;;;;;8.73;2.85;;;;;;;18.08;100.00;100583.53;5081415;28;20005;-80
2023/07/29 07:27:34;;;;;;;7.38;2.88;;;;;;;18.16;100.00;100590.84;5072793;28;20465;-79
2023/07/29 07:29:59;;;;;;;9.40;3.20;;;;;;;18.17;100.00;100596.13;5081848;28;20035;-79
2023/07/29 07:32:26;;;;;;;8.77;3.05;;;;;;;18.21;100.00;100590.34;5069876;28;20098;-79
2023/07/29 07:34:51;;;;;;;10.52;3.83;;;;;;;18.23;100.00;100599.16;5067946;28;20025;-79
2023/07/29 07:37:16;;;;;;;11.50;3.22;;;;;;;18.25;100.00;100600.69;5082590;28;20107;-79
2023/07/29 07:39:42;;;;;;;9.98;3.28;;;;;;;18.29;100.00;100606.66;5085228;28;20057;-80
2023/07/29 07:42:07;;;;;;;9.65;3.17;;;;;;;18.30;100.00;100603.78;5084369;28;20024;-80
2023/07/29 07:44:32;;;;;;;10.57;3.28;;;;;;;18.35;100.00;100606.00;5083974;28;20680;-79
2023/07/29 07:46:57;;;;;;;10.75;3.28;;;;;;;18.41;100.00;100604.47;5076094;28;20098;-79
2023/07/29 07:49:23;;;;;;;8.05;3.10;;;;;;;18.48;100.00;100609.03;5083285;28;20032;-79
2023/07/29 07:51:48;;;;;;;9.10;3.05;;;;;;;18.54;100.00;100614.81;5082981;28;20024;-79
2023/07/29 07:54:14;;;;;;;7.20;2.97;;;;;;;18.60;100.00;100616.88;5083366;28;20028;-79
2023/07/29 07:56:39;;;;;;;6.65;2.47;;;;;;;18.68;100.00;100608.69;5084940;28;20048;-80
2023/07/29 07:59:04;;;;;;;9.27;2.85;;;;;;;18.71;100.00;100612.94;5079047;28;20060;-79
2023/07/29 08:01:39;;;;;;;7.00;2.75;;;;;;;18.72;97.90;100615.50;5084717;28;20028;-79
2023/07/29 08:04:05;;;;;;;6.85;2.50;;;;;;;18.75;100.00;100606.97;5074634;28;20037;-79
2023/07/29 08:06:31;;;;;;;8.38;2.55;;;;;;;18.77;100.00;100599.50;5087253;28;20025;-79
2023/07/29 08:08:57;;;;;;;7.38;2.47;;;;;;;18.80;99.50;100604.59;5080288;28;20025;-79
2023/07/29 08:11:23;;;;;;;10.35;2.85;;;;;;;18.88;100.00;100608.38;5082369;28;20159;-79
2023/07/29 08:13:48;;;;;;;5.13;2.53;;;;;;;18.91;97.71;100610.75;5081851;28;20029;-79
2023/07/29 08:16:14;;;;;;;10.50;2.85;;;;;;;18.96;97.16;100616.50;5081888;28;20088;-79
2023/07/29 08:18:39;;;;;;;7.38;2.75;;;;;;;18.97;96.86;100612.75;5078602;28;20158;-79
2023/07/29 08:21:05;;;;;;;5.07;2.38;;;;;;;18.94;96.78;100622.13;5080194;28;20029;-79
2023/07/29 08:23:31;;;;;;;10.38;2.90;;;;;;;18.94;96.83;100621.28;5073061;28;20029;-79
2023/07/29 08:26:01;;;;;;;8.45;3.10;;;;;;;18.94;97.33;100624.84;5087514;28;20027;-79
2023/07/29 08:28:37;;;;;;;10.98;3.17;;;;;;;18.92;97.27;100626.91;5080330;28;20008;-79
2023/07/29 08:31:03;;;;;;;8.07;2.70;;;;;;;18.89;97.67;100619.09;5076567;28;20004;-79
2023/07/29 08:33:29;;;;;;;8.73;2.92;;;;;;;18.92;98.06;100615.16;5083044;28;20052;-79
2023/07/29 08:35:55;;;;;;;10.98;2.70;;;;;;;18.91;96.90;100614.31;5068516;28;20115;-80
2023/07/29 08:38:20;;;;;;;4.63;2.25;;;;;;;18.92;96.25;100616.00;5064857;28;20021;-79
2023/07/29 08:41:09;;;;;;;5.63;2.17;;;;;;;18.94;97.12;100613.13;5071282;28;20031;-79
2023/07/29 08:43:38;;;;;;;9.02;2.75;;;;;;;18.92;96.32;100609.69;5091948;28;20024;-79
2023/07/29 08:46:03;;;;;;;10.37;2.97;;;;;;;18.98;96.83;100603.59;5073340;28;20033;-79
2023/07/29 08:48:49;;;;;;;7.45;2.28;;;;;;;19.09;95.56;100607.81;5070433;28;20116;-79
2023/07/29 08:51:17;;;;;;;7.75;2.47;;;;;;;19.13;95.61;100607.28;5076939;28;20052;-79
2023/07/29 08:53:43;;;;;;;7.38;2.95;;;;;;;19.19;95.28;100601.13;5070378;28;20033;-79
2023/07/29 08:56:08;;;;;;;7.70;2.33;;;;;;;19.28;94.18;100598.38;5081021;28;20032;-79
2023/07/29 08:58:35;;;;;;;8.77;2.42;;;;;;;19.31;93.06;100598.03;5081616;28;20028;-79
2023/07/29 09:01:00;;;;;;;9.65;2.83;;;;;;;19.35;94.70;100602.94;5079888;28;20455;-79
2023/07/29 09:03:26;;;;;;;6.55;2.30;;;;;;;19.40;95.45;100599.72;5074081;28;20021;-80
2023/07/29 09:05:52;;;;;;;7.30;2.47;;;;;;;19.42;94.30;100608.53;5081280;28;20040;-79
2023/07/29 09:08:18;;;;;;;5.53;2.63;;;;;;;19.47;92.93;100611.56;5077560;28;20084;-79
2023/07/29 09:10:43;;;;;;;8.20;2.13;;;;;;;19.49;92.43;100606.81;5066616;28;20034;-79
2023/07/29 09:13:09;;;;;;;4.53;2.22;;;;;;;19.53;92.09;100607.28;5073911;28;20029;-80
2023/07/29 09:15:36;;;;;;;4.50;2.10;;;;;;;19.56;93.13;100609.66;5081905;28;20032;-80
2023/07/29 09:18:28;;;;;;;6.40;2.55;;;;;;;19.64;95.65;100606.06;5081448;28;20033;-79
2023/07/29 09:20:54;;;;;;;5.50;2.35;;;;;;;19.67;91.55;100592.06;5078835;28;20048;-79
2023/07/29 09:23:19;;;;;;;5.70;2.47;;;;;;;19.70;93.10;100591.72;5080965;28;20029;-79
2023/07/29 09:25:47;;;;;;;6.13;2.50;;;;;;;19.71;90.46;100597.00;5072609;28;20088;-79
2023/07/29 09:28:15;;;;;;;6.18;2.10;;;;;;;19.78;92.00;100589.00;5069950;28;20480;-80
2023/07/29 09:30:42;;;;;;;6.75;2.40;;;;;;;19.84;93.33;100584.66;5078628;28;20040;-79
2023/07/29 09:33:08;;;;;;;5.45;2.47;;;;;;;19.94;92.74;100589.91;5077229;28;20016;-82
2023/07/29 09:35:35;;;;;;;6.75;2.28;;;;;;;19.99;90.14;100592.94;5061956;28;20356;-83
2023/07/29 09:38:04;;;;;;;4.85;2.30;;;;;;;20.04;92.10;100587.78;5056764;28;20025;-83
2023/07/29 09:40:40;;;;;;;8.13;2.30;;;;;;;20.08;89.99;100589.13;5063010;28;20388;-82
2023/07/29 09:43:08;;;;;;;8.02;2.90;;;;;;;20.07;92.02;100591.03;5042302;28;20025;-82
2023/07/29 09:45:36;;;;;;;6.63;2.42;;;;;;;20.07;89.52;100592.88;5059705;28;20438;-82
2023/07/29 09:48:02;;;;;;;6.50;2.50;;;;;;;20.04;87.96;100594.06;5055851;28;20491;-83
2023/07/29 09:50:28;;;;;;;7.75;2.67;;;;;;;20.04;89.46;100598.69;5054970;28;20027;-83
2023/07/29 09:52:55;;;;;;;6.72;2.50;;;;;;;20.04;89.76;100602.25;5064840;28;20029;-82
2023/07/29 09:55:23;;;;;;;5.75;2.60;;;;;;;20.06;90.61;100610.28;5065273;28;20024;-83
2023/07/29 09:57:53;;;;;;;6.07;2.60;;;;;;;20.05;90.19;100606.69;5066678;28;20031;-82
2023/07/29 10:00:19;;;;;;;6.50;2.35;;;;;;;20.02;90.47;100603.50;5049691;28;20070;-83
2023/07/29 10:02:45;;;;;;;6.90;2.75;;;;;;;19.99;90.25;100612.03;5065278;28;20531;-83
2023/07/29 10:05:10;;;;;;;7.28;2.70;;;;;;;20.02;91.52;100600.78;5062855;28;20028;-83
2023/07/29 10:07:39;;;;;;;4.30;2.13;;;;;;;20.06;90.89;100593.94;5062243;28;20396;-83
2023/07/29 10:10:06;;;;;;;5.65;2.40;;;;;;;20.15;90.88;100598.28;5064940;28;20387;-82
2023/07/29 10:12:33;;;;;;;5.10;1.90;;;;;;;20.26;91.34;100591.53;5063416;28;20365;-83
2023/07/29 10:15:06;;;;;;;10.25;3.10;;;;;;;20.39;90.70;100590.94;5060395;28;20020;-82
2023/07/29 10:17:36;;;;;;;7.93;2.42;;;;;;;20.54;91.33;100599.16;5056123;28;20479;-83
2023/07/29 10:20:05;;;;;;;5.85;2.47;;;;;;;20.60;90.17;100599.28;5066207;28;20365;-83
2023/07/29 10:22:38;;;;;;;8.18;2.97;;;;;;;20.72;87.94;100593.41;5056214;28;20480;-82
2023/07/29 10:25:08;;;;;;;7.75;2.97;;;;;;;20.84;88.43;100589.19;5061617;28;20494;-83
2023/07/29 10:27:43;;;;;;;6.82;2.75;;;;;;;20.88;87.15;100590.50;5063074;28;20017;-82
2023/07/29 10:30:11;;;;;;;5.18;2.33;;;;;;;20.98;87.41;100581.19;5052319;28;20392;-83
2023/07/29 10:32:38;;;;;;;7.63;2.88;;;;;;;21.02;83.78;100590.72;5054296;28;20029;-82
2023/07/29 10:35:04;;;;;;;5.95;2.83;;;;;;;21.01;83.56;100587.13;5065801;28;20062;-82
2023/07/29 10:37:29;;;;;;;6.68;3.05;;;;;;;21.04;84.35;100583.16;5064763;28;20505;-83
2023/07/29 10:39:55;;;;;;;5.28;2.42;;;;;;;21.12;85.72;100581.19;5054357;28;20064;-83
2023/07/29 10:42:21;;;;;;;8.68;3.08;;;;;;;21.16;81.80;100578.06;5059623;28;20028;-83
2023/07/29 10:44:54;;;;;;;8.68;3.10;;;;;;;21.21;84.03;100567.44;5063823;28;20028;-82
2023/07/29 10:47:24;;;;;;;6.15;2.75;;;;;;;21.20;82.84;100572.06;5062620;28;20028;-84
2023/07/29 10:50:00;;;;;;;10.15;3.22;;;;;;;21.16;82.23;100570.75;5063298;28;20442;-82
2023/07/29 10:52:35;;;;;;;7.55;3.38;;;;;;;21.16;84.26;100573.47;5065986;28;20031;-83
2023/07/29 10:55:01;;;;;;;12.70;3.50;;;;;;;21.14;82.44;100561.88;5062610;28;20037;-82
2023/07/29 10:57:32;;;;;;;6.60;2.78;;;;;;;21.11;82.13;100565.84;5057933;28;20024;-82
2023/07/29 10:59:58;;;;;;;9.38;3.10;;;;;;;21.09;85.20;100569.78;5055878;28;20552;-83
2023/07/29 11:02:35;;;;;;;8.38;2.92;;;;;;;21.04;85.99;100569.50;5064555;28;20095;-83
2023/07/29 11:05:15;;;;;;;7.20;3.05;;;;;;;21.03;85.42;100573.28;5064459;28;20430;-82
2023/07/29 11:07:48;;;;;;;9.07;3.17;;;;;;;20.93;82.69;100573.56;5062111;28;20065;-82
2023/07/29 11:10:14;;;;;;;6.43;2.70;;;;;;;20.89;84.01;100564.03;5063663;28;20111;-83
2023/07/29 11:12:47;;;;;;;6.50;2.83;;;;;;;20.84;85.41;100577.41;5059804;28;20107;-82